Atglen, Pennsylvania
Current Conditions -  °F | °C
As of 11:55 PM on Saturday 25 Oct 2014 (Local Time) from KMQS Reporting Station
Broken Clouds Broken Clouds  
Wind Chill: 57°   Ceiling: 6000
Heat Index: 57°   Visibility: 10mi
Dew Point: 45°   Wind: 6mph
Humidity: 63%   Direction: 240°WSW
Pressure: 29.64"   Gusts: NA
Location:  39.95°N, 75.97°W
Report Text: KMQS 260355Z AUTO 24005KT 10SM SCT050 BKN060 14/07 A2964 RMK AO2
Loading
Personal Weather Stations






























Interactive Weather Map
Tropical Storm Tracking
New forecast layout! Learn more

10-Day Weather Forecast

Advertisements
Track Severe Weather on mobile